sensor_id;sensor_type;location;lat;lon;timestamp;P1;durP1;ratioP1;P2;durP2;ratioP2
62479;SDS011;48526;48.846;2.322;2022-10-22T07:00:04;4.00;;;2.00;;
62479;SDS011;48526;48.846;2.322;2022-10-22T07:03:07;2.75;;;2.75;;
62479;SDS011;48526;48.846;2.322;2022-10-22T07:09:13;5.50;;;2.75;;
62479;SDS011;48526;48.846;2.322;2022-10-22T07:28:41;2.50;;;1.50;;
62479;SDS011;48526;48.846;2.322;2022-10-22T07:31:43;2.50;;;2.50;;
62479;SDS011;48526;48.846;2.322;2022-10-22T08:11:15;6.25;;;3.25;;
62479;SDS011;48526;48.846;2.322;2022-10-22T08:14:20;4.50;;;4.00;;
62479;SDS011;48526;48.846;2.322;2022-10-22T08:17:14;3.00;;;3.00;;
62479;SDS011;48526;48.846;2.322;2022-10-22T08:23:14;4.50;;;3.00;;
62479;SDS011;48526;48.846;2.322;2022-10-22T08:26:21;2.75;;;2.50;;
62479;SDS011;48526;48.846;2.322;2022-10-22T08:29:36;5.75;;;2.00;;
62479;SDS011;48526;48.846;2.322;2022-10-22T08:39:01;7.50;;;6.25;;
62479;SDS011;48526;48.846;2.322;2022-10-22T08:45:49;4.50;;;4.00;;
62479;SDS011;48526;48.846;2.322;2022-10-22T09:12:49;3.00;;;2.00;;
62479;SDS011;48526;48.846;2.322;2022-10-22T09:15:43;3.25;;;1.50;;
62479;SDS011;48526;48.846;2.322;2022-10-22T09:25:34;2.25;;;2.25;;
62479;SDS011;48526;48.846;2.322;2022-10-22T09:35:37;2.50;;;2.50;;
62479;SDS011;48526;48.846;2.322;2022-10-22T09:45:14;4.25;;;3.00;;
62479;SDS011;48526;48.846;2.322;2022-10-22T09:58:17;7.00;;;6.00;;
62479;SDS011;48526;48.846;2.322;2022-10-22T10:01:03;5.25;;;3.25;;
62479;SDS011;48526;48.846;2.322;2022-10-22T10:04:11;8.75;;;4.25;;
62479;SDS011;48526;48.846;2.322;2022-10-22T10:07:20;5.00;;;4.00;;
62479;SDS011;48526;48.846;2.322;2022-10-22T10:10:35;3.00;;;3.00;;
62479;SDS011;48526;48.846;2.322;2022-10-22T10:13:17;3.00;;;3.00;;
62479;SDS011;48526;48.846;2.322;2022-10-22T10:36:10;4.75;;;4.75;;
62479;SDS011;48526;48.846;2.322;2022-10-22T10:48:53;4.25;;;4.00;;
62479;SDS011;48526;48.846;2.322;2022-10-22T10:55:10;5.25;;;2.00;;
62479;SDS011;48526;48.846;2.322;2022-10-22T11:07:35;3.25;;;2.50;;
62479;SDS011;48526;48.846;2.322;2022-10-22T11:17:35;4.75;;;3.50;;
62479;SDS011;48526;48.846;2.322;2022-10-22T11:23:59;7.00;;;4.00;;
62479;SDS011;48526;48.846;2.322;2022-10-22T11:36:19;4.00;;;3.00;;
62479;SDS011;48526;48.846;2.322;2022-10-22T11:39:26;4.50;;;2.75;;
62479;SDS011;48526;48.846;2.322;2022-10-22T11:42:11;7.75;;;6.00;;
62479;SDS011;48526;48.846;2.322;2022-10-22T11:45:25;4.00;;;3.00;;
62479;SDS011;48526;48.846;2.322;2022-10-22T11:48:18;4.75;;;4.00;;
62479;SDS011;48526;48.846;2.322;2022-10-22T11:51:29;4.00;;;2.50;;
62479;SDS011;48526;48.846;2.322;2022-10-22T12:02:30;3.75;;;2.50;;
62479;SDS011;48526;48.846;2.322;2022-10-22T12:07:53;3.75;;;1.50;;
62479;SDS011;48526;48.846;2.322;2022-10-22T12:10:34;2.50;;;2.00;;
62479;SDS011;48526;48.846;2.322;2022-10-22T12:13:50;3.50;;;3.50;;
62479;SDS011;48526;48.846;2.322;2022-10-22T12:16:10;1.00;;;1.00;;
62479;SDS011;48526;48.846;2.322;2022-10-22T12:19:34;1.25;;;1.25;;
62479;SDS011;48526;48.846;2.322;2022-10-22T12:21:53;1.50;;;1.50;;
62479;SDS011;48526;48.846;2.322;2022-10-22T12:24:35;0.50;;;0.50;;
62479;SDS011;48526;48.846;2.322;2022-10-22T12:30:36;5.75;;;4.25;;
62479;SDS011;48526;48.846;2.322;2022-10-22T12:33:23;4.00;;;2.00;;
62479;SDS011;48526;48.846;2.322;2022-10-22T12:36:14;2.00;;;2.00;;
62479;SDS011;48526;48.846;2.322;2022-10-22T12:38:56;2.25;;;2.00;;
62479;SDS011;48526;48.846;2.322;2022-10-22T12:42:04;3.50;;;3.00;;
62479;SDS011;48526;48.846;2.322;2022-10-22T12:45:16;5.50;;;2.00;;
62479;SDS011;48526;48.846;2.322;2022-10-22T12:48:18;3.50;;;1.75;;
62479;SDS011;48526;48.846;2.322;2022-10-22T12:54:24;0.75;;;0.75;;
62479;SDS011;48526;48.846;2.322;2022-10-22T12:57:26;0.00;;;0.00;;
62479;SDS011;48526;48.846;2.322;2022-10-22T13:03:39;1.50;;;0.75;;
62479;SDS011;48526;48.846;2.322;2022-10-22T13:12:42;1.75;;;1.75;;
62479;SDS011;48526;48.846;2.322;2022-10-22T13:15:34;1.50;;;1.50;;
62479;SDS011;48526;48.846;2.322;2022-10-22T13:18:31;1.00;;;1.00;;
62479;SDS011;48526;48.846;2.322;2022-10-22T13:24:47;2.50;;;1.00;;
62479;SDS011;48526;48.846;2.322;2022-10-22T13:30:35;0.75;;;0.75;;
62479;SDS011;48526;48.846;2.322;2022-10-22T13:36:59;2.00;;;2.00;;
62479;SDS011;48526;48.846;2.322;2022-10-22T13:42:59;1.00;;;0.50;;
62479;SDS011;48526;48.846;2.322;2022-10-22T13:45:38;1.25;;;1.25;;
62479;SDS011;48526;48.846;2.322;2022-10-22T13:48:14;1.75;;;1.75;;
62479;SDS011;48526;48.846;2.322;2022-10-22T13:50:54;2.25;;;1.75;;
62479;SDS011;48526;48.846;2.322;2022-10-22T13:53:38;0.75;;;0.75;;
62479;SDS011;48526;48.846;2.322;2022-10-22T13:56:15;3.00;;;1.25;;
62479;SDS011;48526;48.846;2.322;2022-10-22T13:58:54;2.00;;;2.00;;
62479;SDS011;48526;48.846;2.322;2022-10-22T14:01:50;1.75;;;0.75;;
62479;SDS011;48526;48.846;2.322;2022-10-22T14:04:43;1.25;;;0.25;;
62479;SDS011;48526;48.846;2.322;2022-10-22T14:07:29;1.00;;;1.00;;
62479;SDS011;48526;48.846;2.322;2022-10-22T14:10:16;1.50;;;1.50;;
62479;SDS011;48526;48.846;2.322;2022-10-22T14:12:48;0.75;;;0.75;;
62479;SDS011;48526;48.846;2.322;2022-10-22T14:15:26;0.00;;;0.00;;
62479;SDS011;48526;48.846;2.322;2022-10-22T14:18:02;2.50;;;1.75;;
62479;SDS011;48526;48.846;2.322;2022-10-22T14:20:55;1.75;;;1.75;;
62479;SDS011;48526;48.846;2.322;2022-10-22T14:23:34;2.75;;;2.50;;
62479;SDS011;48526;48.846;2.322;2022-10-22T14:26:08;3.50;;;3.50;;
62479;SDS011;48526;48.846;2.322;2022-10-22T14:28:45;4.25;;;3.00;;
62479;SDS011;48526;48.846;2.322;2022-10-22T14:31:13;2.00;;;1.50;;
62479;SDS011;48526;48.846;2.322;2022-10-22T14:33:57;2.00;;;2.00;;
62479;SDS011;48526;48.846;2.322;2022-10-22T14:36:33;1.50;;;1.00;;
62479;SDS011;48526;48.846;2.322;2022-10-22T14:39:26;3.50;;;1.00;;
62479;SDS011;48526;48.846;2.322;2022-10-22T14:42:04;2.25;;;0.50;;
62479;SDS011;48526;48.846;2.322;2022-10-22T14:44:36;2.00;;;0.75;;
62479;SDS011;48526;48.846;2.322;2022-10-22T14:47:04;1.00;;;0.75;;
62479;SDS011;48526;48.846;2.322;2022-10-22T14:52:32;2.00;;;0.75;;
62479;SDS011;48526;48.846;2.322;2022-10-22T14:55:07;1.25;;;1.00;;
62479;SDS011;48526;48.846;2.322;2022-10-22T14:57:44;1.50;;;1.50;;
62479;SDS011;48526;48.846;2.322;2022-10-22T15:03:03;2.25;;;1.00;;
62479;SDS011;48526;48.846;2.322;2022-10-22T15:05:41;2.00;;;2.00;;
62479;SDS011;48526;48.846;2.322;2022-10-22T15:08:22;2.00;;;1.75;;
62479;SDS011;48526;48.846;2.322;2022-10-22T15:11:02;10.25;;;7.75;;
62479;SDS011;48526;48.846;2.322;2022-10-22T15:13:45;3.25;;;3.25;;
62479;SDS011;48526;48.846;2.322;2022-10-22T15:16:49;4.00;;;4.00;;
62479;SDS011;48526;48.846;2.322;2022-10-22T15:19:37;3.00;;;2.00;;
62479;SDS011;48526;48.846;2.322;2022-10-22T15:22:28;2.25;;;2.25;;
62479;SDS011;48526;48.846;2.322;2022-10-22T15:24:55;3.50;;;1.50;;
62479;SDS011;48526;48.846;2.322;2022-10-22T15:27:42;3.50;;;3.25;;
62479;SDS011;48526;48.846;2.322;2022-10-22T15:30:51;2.75;;;2.75;;
62479;SDS011;48526;48.846;2.322;2022-10-22T15:33:50;1.25;;;0.50;;
62479;SDS011;48526;48.846;2.322;2022-10-22T15:39:59;3.75;;;3.00;;
62479;SDS011;48526;48.846;2.322;2022-10-22T15:43:01;2.00;;;2.00;;
62479;SDS011;48526;48.846;2.322;2022-10-22T15:46:14;2.75;;;2.75;;
62479;SDS011;48526;48.846;2.322;2022-10-22T15:49:18;2.50;;;2.50;;
62479;SDS011;48526;48.846;2.322;2022-10-22T15:52:05;5.00;;;2.50;;
62479;SDS011;48526;48.846;2.322;2022-10-22T15:54:49;1.50;;;1.50;;
62479;SDS011;48526;48.846;2.322;2022-10-22T15:57:27;3.00;;;3.00;;
62479;SDS011;48526;48.846;2.322;2022-10-22T16:03:33;6.00;;;4.50;;
62479;SDS011;48526;48.846;2.322;2022-10-22T16:06:29;5.25;;;5.00;;
62479;SDS011;48526;48.846;2.322;2022-10-22T16:09:46;5.00;;;4.75;;
62479;SDS011;48526;48.846;2.322;2022-10-22T16:12:41;2.00;;;2.00;;
62479;SDS011;48526;48.846;2.322;2022-10-22T16:15:47;6.50;;;6.00;;
62479;SDS011;48526;48.846;2.322;2022-10-22T16:18:43;8.00;;;8.00;;
62479;SDS011;48526;48.846;2.322;2022-10-22T16:21:40;9.00;;;7.00;;
62479;SDS011;48526;48.846;2.322;2022-10-22T16:27:50;13.75;;;12.00;;
62479;SDS011;48526;48.846;2.322;2022-10-22T16:30:59;8.75;;;8.00;;
62479;SDS011;48526;48.846;2.322;2022-10-22T16:33:48;14.75;;;11.00;;
62479;SDS011;48526;48.846;2.322;2022-10-22T16:36:48;11.00;;;9.50;;
62479;SDS011;48526;48.846;2.322;2022-10-22T16:43:17;8.00;;;6.75;;
62479;SDS011;48526;48.846;2.322;2022-10-22T16:46:06;6.75;;;6.75;;
62479;SDS011;48526;48.846;2.322;2022-10-22T16:56:06;12.00;;;6.75;;
62479;SDS011;48526;48.846;2.322;2022-10-22T17:05:57;9.00;;;7.25;;
62479;SDS011;48526;48.846;2.322;2022-10-22T17:08:47;11.75;;;10.00;;
62479;SDS011;48526;48.846;2.322;2022-10-22T17:11:56;7.75;;;7.75;;
62479;SDS011;48526;48.846;2.322;2022-10-22T17:21:18;11.75;;;8.75;;
62479;SDS011;48526;48.846;2.322;2022-10-22T17:24:24;12.00;;;11.75;;
62479;SDS011;48526;48.846;2.322;2022-10-22T17:27:31;9.25;;;9.00;;
62479;SDS011;48526;48.846;2.322;2022-10-22T17:30:19;8.00;;;7.00;;
62479;SDS011;48526;48.846;2.322;2022-10-22T17:33:10;6.50;;;5.75;;
62479;SDS011;48526;48.846;2.322;2022-10-22T17:35:56;10.50;;;8.25;;
62479;SDS011;48526;48.846;2.322;2022-10-22T17:38:46;17.00;;;13.75;;
62479;SDS011;48526;48.846;2.322;2022-10-22T17:44:55;15.50;;;13.00;;
62479;SDS011;48526;48.846;2.322;2022-10-22T17:51:11;19.75;;;16.00;;
62479;SDS011;48526;48.846;2.322;2022-10-22T17:54:11;18.00;;;15.00;;
62479;SDS011;48526;48.846;2.322;2022-10-22T18:00:22;17.50;;;16.75;;
62479;SDS011;48526;48.846;2.322;2022-10-22T18:02:58;24.75;;;21.25;;
62479;SDS011;48526;48.846;2.322;2022-10-22T18:06:14;28.75;;;27.00;;
62479;SDS011;48526;48.846;2.322;2022-10-22T18:09:02;33.75;;;30.50;;
62479;SDS011;48526;48.846;2.322;2022-10-22T18:12:08;21.50;;;20.75;;
62479;SDS011;48526;48.846;2.322;2022-10-22T18:14:38;16.75;;;16.75;;
62479;SDS011;48526;48.846;2.322;2022-10-22T18:17:40;16.25;;;14.00;;
62479;SDS011;48526;48.846;2.322;2022-10-22T18:20:18;19.75;;;17.25;;
62479;SDS011;48526;48.846;2.322;2022-10-22T18:22:53;21.25;;;16.75;;
62479;SDS011;48526;48.846;2.322;2022-10-22T18:25:34;16.50;;;12.75;;
62479;SDS011;48526;48.846;2.322;2022-10-22T18:28:07;23.00;;;17.50;;
62479;SDS011;48526;48.846;2.322;2022-10-22T18:34:09;14.00;;;14.00;;
62479;SDS011;48526;48.846;2.322;2022-10-22T18:37:08;18.00;;;16.75;;
62479;SDS011;48526;48.846;2.322;2022-10-22T18:40:28;20.25;;;17.50;;
62479;SDS011;48526;48.846;2.322;2022-10-22T18:43:33;15.00;;;14.75;;
62479;SDS011;48526;48.846;2.322;2022-10-22T18:46:21;17.50;;;14.25;;
62479;SDS011;48526;48.846;2.322;2022-10-22T18:49:06;19.75;;;19.25;;
62479;SDS011;48526;48.846;2.322;2022-10-22T18:51:42;17.25;;;17.25;;
62479;SDS011;48526;48.846;2.322;2022-10-22T18:54:44;21.00;;;18.75;;
62479;SDS011;48526;48.846;2.322;2022-10-22T18:57:35;18.00;;;16.00;;
62479;SDS011;48526;48.846;2.322;2022-10-22T19:00:29;16.75;;;13.50;;
62479;SDS011;48526;48.846;2.322;2022-10-22T19:03:25;16.75;;;13.75;;
62479;SDS011;48526;48.846;2.322;2022-10-22T19:05:58;19.50;;;16.75;;
62479;SDS011;48526;48.846;2.322;2022-10-22T19:08:33;18.25;;;17.75;;
62479;SDS011;48526;48.846;2.322;2022-10-22T19:11:07;12.50;;;12.50;;
62479;SDS011;48526;48.846;2.322;2022-10-22T19:14:14;22.75;;;19.50;;
62479;SDS011;48526;48.846;2.322;2022-10-22T19:17:10;26.75;;;22.50;;
62479;SDS011;48526;48.846;2.322;2022-10-22T19:19:52;23.25;;;20.50;;
62479;SDS011;48526;48.846;2.322;2022-10-22T19:22:30;26.75;;;22.50;;
62479;SDS011;48526;48.846;2.322;2022-10-22T19:25:14;20.00;;;18.50;;
62479;SDS011;48526;48.846;2.322;2022-10-22T19:28:10;27.75;;;24.00;;
62479;SDS011;48526;48.846;2.322;2022-10-22T19:30:59;23.25;;;19.75;;
62479;SDS011;48526;48.846;2.322;2022-10-22T19:37:13;22.50;;;19.25;;
62479;SDS011;48526;48.846;2.322;2022-10-22T19:40:17;22.50;;;20.00;;
62479;SDS011;48526;48.846;2.322;2022-10-22T19:43:14;23.00;;;20.00;;
62479;SDS011;48526;48.846;2.322;2022-10-22T19:45:59;18.50;;;17.25;;
62479;SDS011;48526;48.846;2.322;2022-10-22T19:49:13;19.75;;;19.00;;
62479;SDS011;48526;48.846;2.322;2022-10-22T19:52:04;22.75;;;20.50;;
62479;SDS011;48526;48.846;2.322;2022-10-22T19:58:21;19.75;;;18.00;;
62479;SDS011;48526;48.846;2.322;2022-10-22T20:01:09;26.25;;;21.75;;
62479;SDS011;48526;48.846;2.322;2022-10-22T20:04:20;18.50;;;17.25;;
62479;SDS011;48526;48.846;2.322;2022-10-22T20:10:26;19.00;;;18.00;;
62479;SDS011;48526;48.846;2.322;2022-10-22T20:13:22;23.75;;;19.50;;
62479;SDS011;48526;48.846;2.322;2022-10-22T20:16:03;19.50;;;17.25;;
62479;SDS011;48526;48.846;2.322;2022-10-22T20:19:12;16.25;;;15.25;;
62479;SDS011;48526;48.846;2.322;2022-10-22T20:22:14;29.75;;;28.50;;
62479;SDS011;48526;48.846;2.322;2022-10-22T20:25:11;27.25;;;25.75;;
62479;SDS011;48526;48.846;2.322;2022-10-22T20:31:39;24.75;;;18.75;;
62479;SDS011;48526;48.846;2.322;2022-10-22T20:34:42;16.75;;;16.00;;
62479;SDS011;48526;48.846;2.322;2022-10-22T20:40:18;18.00;;;14.50;;
62479;SDS011;48526;48.846;2.322;2022-10-22T20:43:05;14.25;;;14.25;;
62479;SDS011;48526;48.846;2.322;2022-10-22T20:48:35;14.00;;;13.50;;
62479;SDS011;48526;48.846;2.322;2022-10-22T20:51:20;13.00;;;12.00;;
62479;SDS011;48526;48.846;2.322;2022-10-22T20:54:02;22.75;;;18.25;;
62479;SDS011;48526;48.846;2.322;2022-10-22T20:56:40;21.00;;;15.75;;
62479;SDS011;48526;48.846;2.322;2022-10-22T20:59:24;11.00;;;11.00;;
62479;SDS011;48526;48.846;2.322;2022-10-22T21:05:02;10.25;;;10.00;;
62479;SDS011;48526;48.846;2.322;2022-10-22T21:07:48;10.50;;;10.00;;
62479;SDS011;48526;48.846;2.322;2022-10-22T21:10:27;9.50;;;8.75;;
62479;SDS011;48526;48.846;2.322;2022-10-22T21:13:03;13.25;;;10.00;;
62479;SDS011;48526;48.846;2.322;2022-10-22T21:15:41;14.00;;;10.50;;
62479;SDS011;48526;48.846;2.322;2022-10-22T21:18:37;13.00;;;10.25;;
62479;SDS011;48526;48.846;2.322;2022-10-22T21:21:10;11.75;;;10.25;;
62479;SDS011;48526;48.846;2.322;2022-10-22T21:23:53;13.75;;;13.00;;
62479;SDS011;48526;48.846;2.322;2022-10-22T21:26:34;12.25;;;11.00;;
62479;SDS011;48526;48.846;2.322;2022-10-22T21:29:28;14.25;;;11.50;;
62479;SDS011;48526;48.846;2.322;2022-10-22T21:32:21;9.75;;;8.25;;
62479;SDS011;48526;48.846;2.322;2022-10-22T21:35:00;11.50;;;9.50;;
62479;SDS011;48526;48.846;2.322;2022-10-22T21:37:58;9.75;;;8.75;;
62479;SDS011;48526;48.846;2.322;2022-10-22T21:40:29;8.75;;;7.75;;
62479;SDS011;48526;48.846;2.322;2022-10-22T21:43:25;14.25;;;9.75;;
62479;SDS011;48526;48.846;2.322;2022-10-22T21:49:02;12.00;;;9.25;;
62479;SDS011;48526;48.846;2.322;2022-10-22T21:51:42;13.50;;;10.00;;
62479;SDS011;48526;48.846;2.322;2022-10-22T21:54:26;10.00;;;9.00;;
62479;SDS011;48526;48.846;2.322;2022-10-22T21:57:07;11.50;;;9.25;;
62479;SDS011;48526;48.846;2.322;2022-10-22T21:59:41;9.50;;;9.50;;
62479;SDS011;48526;48.846;2.322;2022-10-22T22:02:29;7.25;;;7.25;;
62479;SDS011;48526;48.846;2.322;2022-10-22T22:05:12;11.00;;;10.50;;
62479;SDS011;48526;48.846;2.322;2022-10-22T22:07:47;9.25;;;8.75;;
62479;SDS011;48526;48.846;2.322;2022-10-22T22:10:58;9.00;;;9.00;;
62479;SDS011;48526;48.846;2.322;2022-10-22T22:14:21;12.25;;;9.25;;
62479;SDS011;48526;48.846;2.322;2022-10-22T22:16:59;8.75;;;8.75;;
62479;SDS011;48526;48.846;2.322;2022-10-22T22:20:07;11.00;;;9.25;;
62479;SDS011;48526;48.846;2.322;2022-10-22T22:22:36;9.75;;;8.25;;
62479;SDS011;48526;48.846;2.322;2022-10-22T22:25:06;8.50;;;8.25;;
62479;SDS011;48526;48.846;2.322;2022-10-22T22:28:08;10.75;;;9.00;;
62479;SDS011;48526;48.846;2.322;2022-10-22T22:30:36;7.75;;;7.25;;
62479;SDS011;48526;48.846;2.322;2022-10-22T22:36:00;9.25;;;9.00;;
62479;SDS011;48526;48.846;2.322;2022-10-22T22:42:00;9.75;;;8.00;;
62479;SDS011;48526;48.846;2.322;2022-10-22T22:44:58;9.00;;;7.00;;
62479;SDS011;48526;48.846;2.322;2022-10-22T22:47:39;6.50;;;5.50;;
62479;SDS011;48526;48.846;2.322;2022-10-22T22:50:17;9.25;;;9.00;;
62479;SDS011;48526;48.846;2.322;2022-10-22T22:52:45;12.25;;;9.50;;
62479;SDS011;48526;48.846;2.322;2022-10-22T22:55:18;13.00;;;9.75;;
62479;SDS011;48526;48.846;2.322;2022-10-22T22:57:56;7.25;;;7.25;;
62479;SDS011;48526;48.846;2.322;2022-10-22T23:00:46;8.50;;;7.50;;
62479;SDS011;48526;48.846;2.322;2022-10-22T23:03:35;8.00;;;6.25;;
62479;SDS011;48526;48.846;2.322;2022-10-22T23:06:05;7.50;;;6.25;;
62479;SDS011;48526;48.846;2.322;2022-10-22T23:08:46;7.25;;;7.00;;
62479;SDS011;48526;48.846;2.322;2022-10-22T23:11:28;8.00;;;8.00;;
62479;SDS011;48526;48.846;2.322;2022-10-22T23:14:09;6.75;;;6.75;;
62479;SDS011;48526;48.846;2.322;2022-10-22T23:17:08;7.00;;;7.00;;
62479;SDS011;48526;48.846;2.322;2022-10-22T23:19:43;7.50;;;6.00;;
62479;SDS011;48526;48.846;2.322;2022-10-22T23:22:31;7.75;;;6.75;;
62479;SDS011;48526;48.846;2.322;2022-10-22T23:25:33;7.50;;;6.00;;
62479;SDS011;48526;48.846;2.322;2022-10-22T23:28:31;7.00;;;6.50;;
